sensor_id;sensor_type;location;lat;lon;timestamp;P1;durP1;ratioP1;P2;durP2;ratioP2
25299;SDS011;13241;51.208;4.432;2023-05-07T00:01:23;10.23;;;5.53;;
25299;SDS011;13241;51.208;4.432;2023-05-07T00:03:51;8.85;;;5.07;;
25299;SDS011;13241;51.208;4.432;2023-05-07T00:06:18;8.57;;;4.68;;
25299;SDS011;13241;51.208;4.432;2023-05-07T00:08:46;9.40;;;5.05;;
25299;SDS011;13241;51.208;4.432;2023-05-07T00:11:13;8.30;;;4.80;;
25299;SDS011;13241;51.208;4.432;2023-05-07T00:13:41;9.50;;;5.32;;
25299;SDS011;13241;51.208;4.432;2023-05-07T00:16:09;10.32;;;4.68;;
25299;SDS011;13241;51.208;4.432;2023-05-07T00:18:36;13.05;;;5.32;;
25299;SDS011;13241;51.208;4.432;2023-05-07T00:21:03;9.82;;;4.97;;
25299;SDS011;13241;51.208;4.432;2023-05-07T00:23:31;9.73;;;5.05;;
25299;SDS011;13241;51.208;4.432;2023-05-07T00:25:59;14.02;;;6.00;;
25299;SDS011;13241;51.208;4.432;2023-05-07T00:28:26;13.13;;;6.20;;
25299;SDS011;13241;51.208;4.432;2023-05-07T00:30:54;7.90;;;5.18;;
25299;SDS011;13241;51.208;4.432;2023-05-07T00:33:21;7.15;;;5.38;;
25299;SDS011;13241;51.208;4.432;2023-05-07T00:35:49;12.85;;;5.50;;
25299;SDS011;13241;51.208;4.432;2023-05-07T00:38:16;7.32;;;5.25;;
25299;SDS011;13241;51.208;4.432;2023-05-07T00:40:43;8.90;;;5.20;;
25299;SDS011;13241;51.208;4.432;2023-05-07T00:43:11;7.15;;;4.80;;
25299;SDS011;13241;51.208;4.432;2023-05-07T00:45:41;8.68;;;5.47;;
25299;SDS011;13241;51.208;4.432;2023-05-07T00:48:09;11.85;;;5.88;;
25299;SDS011;13241;51.208;4.432;2023-05-07T00:50:36;11.15;;;4.90;;
25299;SDS011;13241;51.208;4.432;2023-05-07T00:53:04;7.82;;;5.28;;
25299;SDS011;13241;51.208;4.432;2023-05-07T00:55:32;8.18;;;5.15;;
25299;SDS011;13241;51.208;4.432;2023-05-07T00:57:59;8.50;;;5.78;;
25299;SDS011;13241;51.208;4.432;2023-05-07T01:00:27;11.52;;;5.65;;
25299;SDS011;13241;51.208;4.432;2023-05-07T01:02:54;8.10;;;5.35;;
25299;SDS011;13241;51.208;4.432;2023-05-07T01:05:23;11.30;;;5.28;;
25299;SDS011;13241;51.208;4.432;2023-05-07T01:07:52;7.15;;;5.10;;
25299;SDS011;13241;51.208;4.432;2023-05-07T01:10:21;8.48;;;5.80;;
25299;SDS011;13241;51.208;4.432;2023-05-07T01:12:52;9.02;;;5.13;;
25299;SDS011;13241;51.208;4.432;2023-05-07T01:15:25;12.20;;;5.75;;
25299;SDS011;13241;51.208;4.432;2023-05-07T01:17:52;6.78;;;4.60;;
25299;SDS011;13241;51.208;4.432;2023-05-07T01:20:27;11.93;;;5.78;;
25299;SDS011;13241;51.208;4.432;2023-05-07T01:22:56;9.27;;;5.53;;
25299;SDS011;13241;51.208;4.432;2023-05-07T01:25:24;9.27;;;5.57;;
25299;SDS011;13241;51.208;4.432;2023-05-07T01:27:55;10.20;;;5.75;;
25299;SDS011;13241;51.208;4.432;2023-05-07T01:30:27;10.93;;;5.80;;
25299;SDS011;13241;51.208;4.432;2023-05-07T01:35:30;7.78;;;5.40;;
25299;SDS011;13241;51.208;4.432;2023-05-07T01:37:59;14.20;;;6.50;;
25299;SDS011;13241;51.208;4.432;2023-05-07T01:40:28;7.00;;;4.80;;
25299;SDS011;13241;51.208;4.432;2023-05-07T01:42:56;12.60;;;5.22;;
25299;SDS011;13241;51.208;4.432;2023-05-07T01:45:26;7.47;;;5.30;;
25299;SDS011;13241;51.208;4.432;2023-05-07T01:47:54;9.32;;;5.35;;
25299;SDS011;13241;51.208;4.432;2023-05-07T01:50:22;9.65;;;5.85;;
25299;SDS011;13241;51.208;4.432;2023-05-07T01:52:50;10.55;;;5.20;;
25299;SDS011;13241;51.208;4.432;2023-05-07T01:55:17;8.90;;;5.70;;
25299;SDS011;13241;51.208;4.432;2023-05-07T01:57:46;12.77;;;6.15;;
25299;SDS011;13241;51.208;4.432;2023-05-07T02:00:13;8.77;;;5.45;;
25299;SDS011;13241;51.208;4.432;2023-05-07T02:02:42;9.75;;;5.95;;
25299;SDS011;13241;51.208;4.432;2023-05-07T02:05:22;11.18;;;5.80;;
25299;SDS011;13241;51.208;4.432;2023-05-07T02:08:01;9.75;;;5.53;;
25299;SDS011;13241;51.208;4.432;2023-05-07T02:10:30;7.13;;;5.43;;
25299;SDS011;13241;51.208;4.432;2023-05-07T02:12:58;10.15;;;6.35;;
25299;SDS011;13241;51.208;4.432;2023-05-07T02:15:28;10.45;;;6.18;;
25299;SDS011;13241;51.208;4.432;2023-05-07T02:18:04;8.15;;;6.03;;
25299;SDS011;13241;51.208;4.432;2023-05-07T02:20:32;10.85;;;5.40;;
25299;SDS011;13241;51.208;4.432;2023-05-07T02:23:01;10.57;;;5.95;;
25299;SDS011;13241;51.208;4.432;2023-05-07T02:25:29;9.27;;;5.43;;
25299;SDS011;13241;51.208;4.432;2023-05-07T02:27:57;11.23;;;5.82;;
25299;SDS011;13241;51.208;4.432;2023-05-07T02:30:45;9.13;;;6.00;;
25299;SDS011;13241;51.208;4.432;2023-05-07T02:33:13;16.60;;;5.32;;
25299;SDS011;13241;51.208;4.432;2023-05-07T02:35:41;11.98;;;5.85;;
25299;SDS011;13241;51.208;4.432;2023-05-07T02:38:10;8.13;;;5.18;;
25299;SDS011;13241;51.208;4.432;2023-05-07T02:40:39;8.85;;;5.15;;
25299;SDS011;13241;51.208;4.432;2023-05-07T02:43:07;10.02;;;6.25;;
25299;SDS011;13241;51.208;4.432;2023-05-07T02:45:34;11.18;;;5.65;;
25299;SDS011;13241;51.208;4.432;2023-05-07T02:48:06;8.55;;;5.35;;
25299;SDS011;13241;51.208;4.432;2023-05-07T02:50:33;10.02;;;5.45;;
25299;SDS011;13241;51.208;4.432;2023-05-07T02:53:01;13.02;;;5.85;;
25299;SDS011;13241;51.208;4.432;2023-05-07T02:55:29;9.57;;;5.68;;
25299;SDS011;13241;51.208;4.432;2023-05-07T02:57:57;8.38;;;5.45;;
25299;SDS011;13241;51.208;4.432;2023-05-07T03:00:25;11.88;;;5.47;;
25299;SDS011;13241;51.208;4.432;2023-05-07T03:03:13;8.73;;;5.30;;
25299;SDS011;13241;51.208;4.432;2023-05-07T03:05:41;9.80;;;5.70;;
25299;SDS011;13241;51.208;4.432;2023-05-07T03:08:08;7.35;;;5.35;;
25299;SDS011;13241;51.208;4.432;2023-05-07T03:10:36;7.82;;;5.38;;
25299;SDS011;13241;51.208;4.432;2023-05-07T03:13:04;11.00;;;5.68;;
25299;SDS011;13241;51.208;4.432;2023-05-07T03:15:41;11.88;;;5.90;;
25299;SDS011;13241;51.208;4.432;2023-05-07T03:18:08;11.05;;;5.20;;
25299;SDS011;13241;51.208;4.432;2023-05-07T03:20:37;12.43;;;5.97;;
25299;SDS011;13241;51.208;4.432;2023-05-07T03:23:04;8.57;;;5.35;;
25299;SDS011;13241;51.208;4.432;2023-05-07T03:25:32;8.40;;;5.22;;
25299;SDS011;13241;51.208;4.432;2023-05-07T03:27:59;10.27;;;5.47;;
25299;SDS011;13241;51.208;4.432;2023-05-07T03:30:36;10.00;;;6.00;;
25299;SDS011;13241;51.208;4.432;2023-05-07T03:33:03;11.25;;;5.97;;
25299;SDS011;13241;51.208;4.432;2023-05-07T03:35:31;10.25;;;5.95;;
25299;SDS011;13241;51.208;4.432;2023-05-07T03:37:59;12.25;;;5.97;;
25299;SDS011;13241;51.208;4.432;2023-05-07T03:40:30;8.98;;;5.53;;
25299;SDS011;13241;51.208;4.432;2023-05-07T03:42:59;10.75;;;5.22;;
25299;SDS011;13241;51.208;4.432;2023-05-07T03:45:29;9.65;;;5.25;;
25299;SDS011;13241;51.208;4.432;2023-05-07T03:48:17;9.68;;;6.20;;
25299;SDS011;13241;51.208;4.432;2023-05-07T03:50:46;14.75;;;5.30;;
25299;SDS011;13241;51.208;4.432;2023-05-07T03:53:16;10.13;;;5.82;;
25299;SDS011;13241;51.208;4.432;2023-05-07T03:55:43;16.10;;;6.07;;
25299;SDS011;13241;51.208;4.432;2023-05-07T03:58:11;8.63;;;5.85;;
25299;SDS011;13241;51.208;4.432;2023-05-07T04:00:38;18.17;;;5.43;;
25299;SDS011;13241;51.208;4.432;2023-05-07T04:03:18;9.18;;;5.28;;
25299;SDS011;13241;51.208;4.432;2023-05-07T04:05:45;9.05;;;5.80;;
25299;SDS011;13241;51.208;4.432;2023-05-07T04:08:13;9.13;;;5.45;;
25299;SDS011;13241;51.208;4.432;2023-05-07T04:10:46;13.20;;;6.43;;
25299;SDS011;13241;51.208;4.432;2023-05-07T04:13:13;9.48;;;5.93;;
25299;SDS011;13241;51.208;4.432;2023-05-07T04:15:41;11.73;;;5.60;;
25299;SDS011;13241;51.208;4.432;2023-05-07T04:18:13;12.23;;;6.18;;
25299;SDS011;13241;51.208;4.432;2023-05-07T04:20:43;8.73;;;5.30;;
25299;SDS011;13241;51.208;4.432;2023-05-07T04:23:15;9.32;;;5.70;;
25299;SDS011;13241;51.208;4.432;2023-05-07T04:25:43;9.38;;;5.82;;
25299;SDS011;13241;51.208;4.432;2023-05-07T04:28:28;7.78;;;5.85;;
25299;SDS011;13241;51.208;4.432;2023-05-07T04:30:57;8.95;;;5.88;;
25299;SDS011;13241;51.208;4.432;2023-05-07T04:33:25;8.13;;;5.53;;
25299;SDS011;13241;51.208;4.432;2023-05-07T04:35:55;7.63;;;5.63;;
25299;SDS011;13241;51.208;4.432;2023-05-07T04:38:23;9.13;;;5.85;;
25299;SDS011;13241;51.208;4.432;2023-05-07T04:40:52;8.25;;;5.38;;
25299;SDS011;13241;51.208;4.432;2023-05-07T04:43:23;12.07;;;6.40;;
25299;SDS011;13241;51.208;4.432;2023-05-07T04:45:51;9.45;;;5.97;;
25299;SDS011;13241;51.208;4.432;2023-05-07T04:48:22;10.57;;;6.07;;
25299;SDS011;13241;51.208;4.432;2023-05-07T04:50:51;10.10;;;6.30;;
25299;SDS011;13241;51.208;4.432;2023-05-07T04:53:21;17.55;;;5.43;;
25299;SDS011;13241;51.208;4.432;2023-05-07T04:55:54;10.38;;;6.57;;
25299;SDS011;13241;51.208;4.432;2023-05-07T04:58:23;9.43;;;5.82;;
25299;SDS011;13241;51.208;4.432;2023-05-07T05:00:52;9.00;;;5.70;;
25299;SDS011;13241;51.208;4.432;2023-05-07T05:03:19;9.32;;;5.90;;
25299;SDS011;13241;51.208;4.432;2023-05-07T05:05:48;8.52;;;5.75;;
25299;SDS011;13241;51.208;4.432;2023-05-07T05:08:16;10.57;;;5.88;;
25299;SDS011;13241;51.208;4.432;2023-05-07T05:10:44;9.25;;;6.05;;
25299;SDS011;13241;51.208;4.432;2023-05-07T05:13:12;11.38;;;6.13;;
25299;SDS011;13241;51.208;4.432;2023-05-07T05:15:41;7.75;;;5.40;;
25299;SDS011;13241;51.208;4.432;2023-05-07T05:18:09;11.10;;;7.00;;
25299;SDS011;13241;51.208;4.432;2023-05-07T05:20:38;12.60;;;6.07;;
25299;SDS011;13241;51.208;4.432;2023-05-07T05:23:07;13.80;;;6.20;;
25299;SDS011;13241;51.208;4.432;2023-05-07T05:25:36;8.93;;;5.43;;
25299;SDS011;13241;51.208;4.432;2023-05-07T05:28:07;8.98;;;5.25;;
25299;SDS011;13241;51.208;4.432;2023-05-07T05:30:34;8.90;;;5.70;;
25299;SDS011;13241;51.208;4.432;2023-05-07T05:33:01;10.15;;;5.90;;
25299;SDS011;13241;51.208;4.432;2023-05-07T05:35:30;7.88;;;5.63;;
25299;SDS011;13241;51.208;4.432;2023-05-07T05:38:01;8.98;;;5.85;;
25299;SDS011;13241;51.208;4.432;2023-05-07T05:40:29;8.68;;;5.57;;
25299;SDS011;13241;51.208;4.432;2023-05-07T05:42:59;9.65;;;5.78;;
25299;SDS011;13241;51.208;4.432;2023-05-07T05:45:27;10.50;;;6.18;;
25299;SDS011;13241;51.208;4.432;2023-05-07T05:47:55;10.70;;;5.97;;
25299;SDS011;13241;51.208;4.432;2023-05-07T05:50:24;9.63;;;5.82;;
25299;SDS011;13241;51.208;4.432;2023-05-07T05:52:53;10.32;;;6.25;;
25299;SDS011;13241;51.208;4.432;2023-05-07T05:55:21;11.45;;;6.00;;
25299;SDS011;13241;51.208;4.432;2023-05-07T05:57:48;7.90;;;5.55;;
25299;SDS011;13241;51.208;4.432;2023-05-07T06:00:16;9.25;;;6.05;;
25299;SDS011;13241;51.208;4.432;2023-05-07T06:02:44;13.50;;;6.13;;
25299;SDS011;13241;51.208;4.432;2023-05-07T06:05:17;10.13;;;5.82;;
25299;SDS011;13241;51.208;4.432;2023-05-07T06:07:48;14.48;;;6.40;;
25299;SDS011;13241;51.208;4.432;2023-05-07T06:10:16;9.52;;;5.93;;
25299;SDS011;13241;51.208;4.432;2023-05-07T06:12:45;9.68;;;6.00;;
25299;SDS011;13241;51.208;4.432;2023-05-07T06:15:12;11.93;;;6.45;;
25299;SDS011;13241;51.208;4.432;2023-05-07T06:17:41;9.80;;;6.25;;
25299;SDS011;13241;51.208;4.432;2023-05-07T06:20:10;9.15;;;6.15;;
25299;SDS011;13241;51.208;4.432;2023-05-07T06:22:39;6.35;;;4.95;;
25299;SDS011;13241;51.208;4.432;2023-05-07T06:25:09;13.15;;;5.80;;
25299;SDS011;13241;51.208;4.432;2023-05-07T06:27:37;10.35;;;6.35;;
25299;SDS011;13241;51.208;4.432;2023-05-07T06:30:06;9.52;;;5.22;;
25299;SDS011;13241;51.208;4.432;2023-05-07T06:32:37;11.02;;;6.15;;
25299;SDS011;13241;51.208;4.432;2023-05-07T06:35:05;16.85;;;6.05;;
25299;SDS011;13241;51.208;4.432;2023-05-07T06:37:34;8.85;;;6.30;;
25299;SDS011;13241;51.208;4.432;2023-05-07T06:40:05;10.20;;;5.82;;
25299;SDS011;13241;51.208;4.432;2023-05-07T06:42:39;13.48;;;5.95;;
25299;SDS011;13241;51.208;4.432;2023-05-07T06:45:36;12.02;;;5.72;;
25299;SDS011;13241;51.208;4.432;2023-05-07T06:48:05;12.70;;;6.40;;
25299;SDS011;13241;51.208;4.432;2023-05-07T06:50:43;9.82;;;6.18;;
25299;SDS011;13241;51.208;4.432;2023-05-07T06:53:11;12.70;;;6.22;;
25299;SDS011;13241;51.208;4.432;2023-05-07T06:55:39;9.40;;;6.22;;
25299;SDS011;13241;51.208;4.432;2023-05-07T06:58:08;10.68;;;6.38;;
25299;SDS011;13241;51.208;4.432;2023-05-07T07:00:36;11.23;;;5.57;;
25299;SDS011;13241;51.208;4.432;2023-05-07T07:03:04;15.48;;;6.78;;
25299;SDS011;13241;51.208;4.432;2023-05-07T07:05:32;13.23;;;5.88;;
25299;SDS011;13241;51.208;4.432;2023-05-07T07:08:03;12.50;;;6.60;;
25299;SDS011;13241;51.208;4.432;2023-05-07T07:10:30;9.30;;;5.78;;
25299;SDS011;13241;51.208;4.432;2023-05-07T07:12:59;14.02;;;6.35;;
25299;SDS011;13241;51.208;4.432;2023-05-07T07:15:27;12.27;;;6.57;;
25299;SDS011;13241;51.208;4.432;2023-05-07T07:17:55;14.15;;;7.35;;
25299;SDS011;13241;51.208;4.432;2023-05-07T07:20:24;8.07;;;6.25;;
25299;SDS011;13241;51.208;4.432;2023-05-07T07:22:51;10.90;;;6.35;;
25299;SDS011;13241;51.208;4.432;2023-05-07T07:25:20;10.45;;;5.93;;
25299;SDS011;13241;51.208;4.432;2023-05-07T07:27:50;14.25;;;6.00;;
25299;SDS011;13241;51.208;4.432;2023-05-07T07:30:19;10.18;;;6.03;;
25299;SDS011;13241;51.208;4.432;2023-05-07T07:32:49;8.70;;;5.90;;
25299;SDS011;13241;51.208;4.432;2023-05-07T07:35:19;13.05;;;6.38;;
25299;SDS011;13241;51.208;4.432;2023-05-07T07:37:48;9.48;;;6.00;;
25299;SDS011;13241;51.208;4.432;2023-05-07T07:40:17;13.02;;;5.70;;
25299;SDS011;13241;51.208;4.432;2023-05-07T07:42:45;10.38;;;6.50;;
25299;SDS011;13241;51.208;4.432;2023-05-07T07:45:12;9.00;;;5.20;;
25299;SDS011;13241;51.208;4.432;2023-05-07T07:47:44;9.18;;;5.00;;
25299;SDS011;13241;51.208;4.432;2023-05-07T07:50:12;13.68;;;5.07;;
25299;SDS011;13241;51.208;4.432;2023-05-07T07:52:57;6.43;;;4.72;;
25299;SDS011;13241;51.208;4.432;2023-05-07T07:55:25;10.02;;;5.70;;
25299;SDS011;13241;51.208;4.432;2023-05-07T07:57:53;11.50;;;5.03;;
25299;SDS011;13241;51.208;4.432;2023-05-07T08:00:22;9.13;;;4.50;;
25299;SDS011;13241;51.208;4.432;2023-05-07T08:02:54;13.30;;;5.15;;
25299;SDS011;13241;51.208;4.432;2023-05-07T08:05:26;8.53;;;5.27;;
25299;SDS011;13241;51.208;4.432;2023-05-07T08:07:55;7.20;;;5.00;;
25299;SDS011;13241;51.208;4.432;2023-05-07T08:10:27;9.18;;;5.07;;
25299;SDS011;13241;51.208;4.432;2023-05-07T08:13:02;6.97;;;4.93;;
25299;SDS011;13241;51.208;4.432;2023-05-07T08:15:35;8.80;;;5.35;;
25299;SDS011;13241;51.208;4.432;2023-05-07T08:18:03;12.77;;;5.32;;
25299;SDS011;13241;51.208;4.432;2023-05-07T08:20:31;16.27;;;4.93;;
25299;SDS011;13241;51.208;4.432;2023-05-07T08:23:00;7.47;;;4.43;;
25299;SDS011;13241;51.208;4.432;2023-05-07T08:25:28;7.28;;;4.63;;
25299;SDS011;13241;51.208;4.432;2023-05-07T08:27:55;9.48;;;4.18;;
25299;SDS011;13241;51.208;4.432;2023-05-07T08:30:23;10.82;;;4.68;;
25299;SDS011;13241;51.208;4.432;2023-05-07T08:32:52;15.77;;;5.28;;
25299;SDS011;13241;51.208;4.432;2023-05-07T08:35:21;9.85;;;5.18;;
25299;SDS011;13241;51.208;4.432;2023-05-07T08:37:48;7.10;;;4.30;;
25299;SDS011;13241;51.208;4.432;2023-05-07T08:40:17;13.13;;;5.10;;
25299;SDS011;13241;51.208;4.432;2023-05-07T08:42:48;12.65;;;5.10;;
25299;SDS011;13241;51.208;4.432;2023-05-07T08:45:16;7.50;;;4.90;;
25299;SDS011;13241;51.208;4.432;2023-05-07T08:47:49;11.38;;;5.43;;
25299;SDS011;13241;51.208;4.432;2023-05-07T08:50:21;8.10;;;4.40;;
25299;SDS011;13241;51.208;4.432;2023-05-07T08:52:50;10.27;;;5.30;;
25299;SDS011;13241;51.208;4.432;2023-05-07T08:55:21;7.00;;;4.65;;
25299;SDS011;13241;51.208;4.432;2023-05-07T08:57:49;5.78;;;4.57;;
25299;SDS011;13241;51.208;4.432;2023-05-07T09:00:19;10.50;;;4.80;;
25299;SDS011;13241;51.208;4.432;2023-05-07T09:02:49;9.35;;;5.13;;
25299;SDS011;13241;51.208;4.432;2023-05-07T09:05:17;19.02;;;4.47;;
25299;SDS011;13241;51.208;4.432;2023-05-07T09:07:45;11.15;;;5.53;;
25299;SDS011;13241;51.208;4.432;2023-05-07T09:10:14;7.43;;;5.15;;
25299;SDS011;13241;51.208;4.432;2023-05-07T09:12:44;9.50;;;5.50;;
25299;SDS011;13241;51.208;4.432;2023-05-07T09:15:14;9.95;;;5.43;;
25299;SDS011;13241;51.208;4.432;2023-05-07T09:17:43;9.93;;;5.63;;
25299;SDS011;13241;51.208;4.432;2023-05-07T09:20:11;9.70;;;5.53;;
25299;SDS011;13241;51.208;4.432;2023-05-07T09:22:39;10.45;;;5.70;;
25299;SDS011;13241;51.208;4.432;2023-05-07T09:25:10;11.18;;;5.55;;
25299;SDS011;13241;51.208;4.432;2023-05-07T09:27:40;11.60;;;6.07;;
25299;SDS011;13241;51.208;4.432;2023-05-07T09:30:10;13.15;;;5.85;;
25299;SDS011;13241;51.208;4.432;2023-05-07T09:32:37;9.38;;;5.35;;
25299;SDS011;13241;51.208;4.432;2023-05-07T09:35:15;13.60;;;5.47;;
25299;SDS011;13241;51.208;4.432;2023-05-07T09:37:46;9.20;;;6.22;;
25299;SDS011;13241;51.208;4.432;2023-05-07T09:40:24;9.20;;;5.90;;
25299;SDS011;13241;51.208;4.432;2023-05-07T09:42:53;9.65;;;5.35;;
25299;SDS011;13241;51.208;4.432;2023-05-07T09:45:25;8.23;;;4.95;;
25299;SDS011;13241;51.208;4.432;2023-05-07T09:47:55;9.88;;;5.85;;
25299;SDS011;13241;51.208;4.432;2023-05-07T09:50:28;13.43;;;5.88;;
25299;SDS011;13241;51.208;4.432;2023-05-07T09:52:57;11.03;;;6.20;;
25299;SDS011;13241;51.208;4.432;2023-05-07T09:55:26;8.95;;;4.75;;
25299;SDS011;13241;51.208;4.432;2023-05-07T09:57:55;11.13;;;4.47;;
25299;SDS011;13241;51.208;4.432;2023-05-07T10:00:26;8.38;;;4.55;;
25299;SDS011;13241;51.208;4.432;2023-05-07T10:03:02;7.50;;;4.82;;
25299;SDS011;13241;51.208;4.432;2023-05-07T10:05:39;6.78;;;4.45;;
25299;SDS011;13241;51.208;4.432;2023-05-07T10:08:07;10.93;;;4.07;;
25299;SDS011;13241;51.208;4.432;2023-05-07T10:10:37;10.10;;;3.40;;
25299;SDS011;13241;51.208;4.432;2023-05-07T10:13:09;5.78;;;2.97;;
25299;SDS011;13241;51.208;4.432;2023-05-07T10:18:09;6.43;;;3.03;;
25299;SDS011;13241;51.208;4.432;2023-05-07T10:20:37;4.88;;;2.72;;
25299;SDS011;13241;51.208;4.432;2023-05-07T10:23:08;5.15;;;2.90;;
25299;SDS011;13241;51.208;4.432;2023-05-07T10:25:43;5.63;;;3.28;;
25299;SDS011;13241;51.208;4.432;2023-05-07T10:28:19;9.10;;;3.90;;
25299;SDS011;13241;51.208;4.432;2023-05-07T10:33:23;4.47;;;2.40;;
25299;SDS011;13241;51.208;4.432;2023-05-07T10:35:52;5.85;;;3.00;;
25299;SDS011;13241;51.208;4.432;2023-05-07T10:38:23;7.55;;;3.25;;
25299;SDS011;13241;51.208;4.432;2023-05-07T10:40:54;10.30;;;4.28;;
25299;SDS011;13241;51.208;4.432;2023-05-07T10:43:21;9.13;;;3.63;;
25299;SDS011;13241;51.208;4.432;2023-05-07T10:51:34;4.60;;;2.60;;
25299;SDS011;13241;51.208;4.432;2023-05-07T10:56:47;12.38;;;3.67;;
25299;SDS011;13241;51.208;4.432;2023-05-07T11:01:57;4.97;;;2.90;;
25299;SDS011;13241;51.208;4.432;2023-05-07T11:07:39;6.18;;;2.83;;
25299;SDS011;13241;51.208;4.432;2023-05-07T11:10:13;8.55;;;2.35;;
25299;SDS011;13241;51.208;4.432;2023-05-07T11:12:56;5.97;;;2.25;;
25299;SDS011;13241;51.208;4.432;2023-05-07T11:18:04;3.85;;;1.98;;
25299;SDS011;13241;51.208;4.432;2023-05-07T11:24:01;10.15;;;2.45;;
25299;SDS011;13241;51.208;4.432;2023-05-07T11:26:41;5.80;;;2.17;;
25299;SDS011;13241;51.208;4.432;2023-05-07T11:29:19;4.07;;;1.90;;
25299;SDS011;13241;51.208;4.432;2023-05-07T11:31:52;4.60;;;2.00;;
25299;SDS011;13241;51.208;4.432;2023-05-07T11:34:23;4.40;;;2.20;;
25299;SDS011;13241;51.208;4.432;2023-05-07T11:36:52;4.15;;;2.10;;
25299;SDS011;13241;51.208;4.432;2023-05-07T11:39:30;4.25;;;1.33;;
25299;SDS011;13241;51.208;4.432;2023-05-07T11:42:02;7.57;;;2.13;;
25299;SDS011;13241;51.208;4.432;2023-05-07T11:44:42;3.78;;;1.73;;
25299;SDS011;13241;51.208;4.432;2023-05-07T11:47:10;6.10;;;1.88;;
25299;SDS011;13241;51.208;4.432;2023-05-07T11:49:39;3.25;;;1.33;;
25299;SDS011;13241;51.208;4.432;2023-05-07T11:52:07;3.78;;;1.55;;
25299;SDS011;13241;51.208;4.432;2023-05-07T11:54:35;2.05;;;1.30;;
25299;SDS011;13241;51.208;4.432;2023-05-07T11:57:03;5.35;;;1.23;;
25299;SDS011;13241;51.208;4.432;2023-05-07T11:59:38;3.88;;;1.80;;
25299;SDS011;13241;51.208;4.432;2023-05-07T12:02:06;3.95;;;1.75;;
25299;SDS011;13241;51.208;4.432;2023-05-07T12:04:34;6.28;;;1.75;;
25299;SDS011;13241;51.208;4.432;2023-05-07T12:07:02;5.65;;;2.10;;
25299;SDS011;13241;51.208;4.432;2023-05-07T12:09:29;4.75;;;1.55;;
25299;SDS011;13241;51.208;4.432;2023-05-07T12:12:03;3.40;;;1.63;;
25299;SDS011;13241;51.208;4.432;2023-05-07T12:14:31;3.13;;;1.63;;
25299;SDS011;13241;51.208;4.432;2023-05-07T12:17:00;5.80;;;1.60;;
25299;SDS011;13241;51.208;4.432;2023-05-07T12:19:32;3.65;;;1.60;;
25299;SDS011;13241;51.208;4.432;2023-05-07T12:22:02;3.10;;;1.40;;
25299;SDS011;13241;51.208;4.432;2023-05-07T12:24:48;5.78;;;1.30;;
25299;SDS011;13241;51.208;4.432;2023-05-07T12:27:20;5.10;;;1.48;;
25299;SDS011;13241;51.208;4.432;2023-05-07T12:29:47;3.75;;;1.38;;
25299;SDS011;13241;51.208;4.432;2023-05-07T12:32:16;4.53;;;2.08;;
25299;SDS011;13241;51.208;4.432;2023-05-07T12:34:44;1.30;;;1.05;;
25299;SDS011;13241;51.208;4.432;2023-05-07T12:37:12;4.68;;;1.25;;
25299;SDS011;13241;51.208;4.432;2023-05-07T12:39:44;2.10;;;1.40;;
25299;SDS011;13241;51.208;4.432;2023-05-07T12:42:14;6.97;;;1.75;;
25299;SDS011;13241;51.208;4.432;2023-05-07T12:44:43;5.10;;;1.90;;
25299;SDS011;13241;51.208;4.432;2023-05-07T12:47:12;3.55;;;1.80;;
25299;SDS011;13241;51.208;4.432;2023-05-07T12:49:40;5.00;;;2.15;;
25299;SDS011;13241;51.208;4.432;2023-05-07T12:52:08;2.45;;;1.67;;
25299;SDS011;13241;51.208;4.432;2023-05-07T12:54:37;3.58;;;1.50;;
25299;SDS011;13241;51.208;4.432;2023-05-07T12:57:06;5.55;;;2.78;;
25299;SDS011;13241;51.208;4.432;2023-05-07T12:59:37;8.30;;;1.90;;
25299;SDS011;13241;51.208;4.432;2023-05-07T13:02:05;4.80;;;1.80;;
25299;SDS011;13241;51.208;4.432;2023-05-07T13:04:34;6.85;;;1.95;;
25299;SDS011;13241;51.208;4.432;2023-05-07T13:07:02;4.32;;;1.98;;
25299;SDS011;13241;51.208;4.432;2023-05-07T13:09:30;7.70;;;1.70;;
25299;SDS011;13241;51.208;4.432;2023-05-07T13:11:58;2.67;;;1.50;;
25299;SDS011;13241;51.208;4.432;2023-05-07T13:14:27;3.22;;;1.50;;
25299;SDS011;13241;51.208;4.432;2023-05-07T13:16:55;6.20;;;1.85;;
25299;SDS011;13241;51.208;4.432;2023-05-07T13:19:23;2.38;;;1.77;;
25299;SDS011;13241;51.208;4.432;2023-05-07T13:21:50;5.03;;;1.33;;
25299;SDS011;13241;51.208;4.432;2023-05-07T13:24:18;4.60;;;1.60;;
25299;SDS011;13241;51.208;4.432;2023-05-07T13:26:46;2.88;;;1.63;;
25299;SDS011;13241;51.208;4.432;2023-05-07T13:29:14;3.28;;;1.60;;
25299;SDS011;13241;51.208;4.432;2023-05-07T13:31:41;3.22;;;1.42;;
25299;SDS011;13241;51.208;4.432;2023-05-07T13:34:10;3.17;;;1.52;;
25299;SDS011;13241;51.208;4.432;2023-05-07T13:36:37;5.75;;;1.83;;
25299;SDS011;13241;51.208;4.432;2023-05-07T13:39:06;2.42;;;1.58;;
25299;SDS011;13241;51.208;4.432;2023-05-07T13:41:34;3.20;;;1.38;;
25299;SDS011;13241;51.208;4.432;2023-05-07T13:44:01;4.82;;;1.90;;
25299;SDS011;13241;51.208;4.432;2023-05-07T13:46:29;5.22;;;2.00;;
25299;SDS011;13241;51.208;4.432;2023-05-07T13:48:56;4.00;;;1.75;;
25299;SDS011;13241;51.208;4.432;2023-05-07T13:51:24;4.93;;;1.42;;
25299;SDS011;13241;51.208;4.432;2023-05-07T13:53:52;2.42;;;1.20;;
25299;SDS011;13241;51.208;4.432;2023-05-07T13:56:20;2.67;;;1.70;;
25299;SDS011;13241;51.208;4.432;2023-05-07T13:58:50;3.08;;;1.63;;
25299;SDS011;13241;51.208;4.432;2023-05-07T14:01:26;3.05;;;1.60;;
25299;SDS011;13241;51.208;4.432;2023-05-07T14:03:55;3.15;;;1.10;;
25299;SDS011;13241;51.208;4.432;2023-05-07T14:06:26;6.22;;;1.38;;
25299;SDS011;13241;51.208;4.432;2023-05-07T14:08:54;3.97;;;1.58;;
25299;SDS011;13241;51.208;4.432;2023-05-07T14:11:24;3.47;;;0.95;;
25299;SDS011;13241;51.208;4.432;2023-05-07T14:13:51;2.28;;;1.35;;
25299;SDS011;13241;51.208;4.432;2023-05-07T14:16:19;3.08;;;1.60;;
25299;SDS011;13241;51.208;4.432;2023-05-07T14:18:46;5.55;;;1.65;;
25299;SDS011;13241;51.208;4.432;2023-05-07T14:21:14;4.80;;;1.92;;
25299;SDS011;13241;51.208;4.432;2023-05-07T14:23:41;4.00;;;1.80;;
25299;SDS011;13241;51.208;4.432;2023-05-07T14:26:08;3.15;;;1.65;;
25299;SDS011;13241;51.208;4.432;2023-05-07T14:28:36;6.75;;;1.70;;
25299;SDS011;13241;51.208;4.432;2023-05-07T14:31:06;2.28;;;1.65;;
25299;SDS011;13241;51.208;4.432;2023-05-07T14:33:33;2.15;;;1.52;;
25299;SDS011;13241;51.208;4.432;2023-05-07T14:36:01;2.92;;;1.33;;
25299;SDS011;13241;51.208;4.432;2023-05-07T14:38:30;5.65;;;2.35;;
25299;SDS011;13241;51.208;4.432;2023-05-07T14:40:59;5.07;;;1.40;;
25299;SDS011;13241;51.208;4.432;2023-05-07T14:43:27;2.50;;;1.27;;
25299;SDS011;13241;51.208;4.432;2023-05-07T14:45:54;3.50;;;1.25;;
25299;SDS011;13241;51.208;4.432;2023-05-07T14:48:22;2.50;;;1.52;;
25299;SDS011;13241;51.208;4.432;2023-05-07T14:50:53;5.82;;;2.00;;
25299;SDS011;13241;51.208;4.432;2023-05-07T14:53:20;4.75;;;1.42;;
25299;SDS011;13241;51.208;4.432;2023-05-07T14:55:50;3.10;;;1.80;;
25299;SDS011;13241;51.208;4.432;2023-05-07T14:58:20;4.13;;;1.52;;
25299;SDS011;13241;51.208;4.432;2023-05-07T15:00:47;2.42;;;1.60;;
25299;SDS011;13241;51.208;4.432;2023-05-07T15:03:15;2.33;;;1.40;;
25299;SDS011;13241;51.208;4.432;2023-05-07T15:05:44;3.20;;;1.33;;
25299;SDS011;13241;51.208;4.432;2023-05-07T15:08:11;3.50;;;1.73;;
25299;SDS011;13241;51.208;4.432;2023-05-07T15:10:39;3.53;;;1.92;;
25299;SDS011;13241;51.208;4.432;2023-05-07T15:13:08;3.03;;;1.88;;
25299;SDS011;13241;51.208;4.432;2023-05-07T15:15:41;3.60;;;1.58;;
25299;SDS011;13241;51.208;4.432;2023-05-07T15:18:10;3.35;;;2.45;;
25299;SDS011;13241;51.208;4.432;2023-05-07T15:20:37;13.68;;;4.45;;
25299;SDS011;13241;51.208;4.432;2023-05-07T15:23:06;3.88;;;1.48;;
25299;SDS011;13241;51.208;4.432;2023-05-07T15:25:37;2.97;;;1.20;;